sensor_id;sensor_type;location;lat;lon;timestamp;temperature;humidity
64634;DHT22;51043;52.406;9.690;2023-09-08T00:00:28;16.60;99.90
64634;DHT22;51043;52.406;9.690;2023-09-08T00:02:59;16.40;99.90
64634;DHT22;51043;52.406;9.690;2023-09-08T00:05:27;16.40;99.90
64634;DHT22;51043;52.406;9.690;2023-09-08T00:07:55;16.30;99.90
64634;DHT22;51043;52.406;9.690;2023-09-08T00:10:24;16.30;99.90
64634;DHT22;51043;52.406;9.690;2023-09-08T00:12:54;16.20;99.90
64634;DHT22;51043;52.406;9.690;2023-09-08T00:15:22;16.20;99.90
64634;DHT22;51043;52.406;9.690;2023-09-08T00:17:50;16.20;99.90
64634;DHT22;51043;52.406;9.690;2023-09-08T00:20:18;16.20;99.90
64634;DHT22;51043;52.406;9.690;2023-09-08T00:22:46;16.20;99.90
64634;DHT22;51043;52.406;9.690;2023-09-08T00:25:15;16.30;99.90
64634;DHT22;51043;52.406;9.690;2023-09-08T00:27:43;16.40;99.90
64634;DHT22;51043;52.406;9.690;2023-09-08T00:30:14;16.70;99.90
64634;DHT22;51043;52.406;9.690;2023-09-08T00:32:43;16.80;99.90
64634;DHT22;51043;52.406;9.690;2023-09-08T00:35:13;17.00;99.90
64634;DHT22;51043;52.406;9.690;2023-09-08T00:37:41;17.10;99.90
64634;DHT22;51043;52.406;9.690;2023-09-08T00:40:12;17.10;99.90
64634;DHT22;51043;52.406;9.690;2023-09-08T00:42:40;17.10;99.90
64634;DHT22;51043;52.406;9.690;2023-09-08T00:45:09;17.00;99.90
64634;DHT22;51043;52.406;9.690;2023-09-08T00:47:38;17.00;99.90
64634;DHT22;51043;52.406;9.690;2023-09-08T00:50:07;17.00;99.90
64634;DHT22;51043;52.406;9.690;2023-09-08T00:52:37;17.00;99.90
64634;DHT22;51043;52.406;9.690;2023-09-08T00:55:05;17.00;99.90
64634;DHT22;51043;52.406;9.690;2023-09-08T00:57:34;17.10;99.90
64634;DHT22;51043;52.406;9.690;2023-09-08T01:00:02;17.10;99.90
64634;DHT22;51043;52.406;9.690;2023-09-08T01:02:32;17.10;99.90
64634;DHT22;51043;52.406;9.690;2023-09-08T01:05:02;17.20;99.90
64634;DHT22;51043;52.406;9.690;2023-09-08T01:07:30;17.30;99.90
64634;DHT22;51043;52.406;9.690;2023-09-08T01:09:59;17.10;99.90
64634;DHT22;51043;52.406;9.690;2023-09-08T01:12:31;17.00;99.90
64634;DHT22;51043;52.406;9.690;2023-09-08T01:15:00;16.90;99.90
64634;DHT22;51043;52.406;9.690;2023-09-08T01:17:28;16.90;99.90
64634;DHT22;51043;52.406;9.690;2023-09-08T01:20:02;16.80;99.90
64634;DHT22;51043;52.406;9.690;2023-09-08T01:23:03;16.80;99.90
64634;DHT22;51043;52.406;9.690;2023-09-08T01:25:46;16.90;99.90
64634;DHT22;51043;52.406;9.690;2023-09-08T01:28:17;17.00;99.90
64634;DHT22;51043;52.406;9.690;2023-09-08T01:30:46;17.10;99.90
64634;DHT22;51043;52.406;9.690;2023-09-08T01:33:16;17.10;99.90
64634;DHT22;51043;52.406;9.690;2023-09-08T01:35:45;17.20;99.90
64634;DHT22;51043;52.406;9.690;2023-09-08T01:38:13;17.20;99.90
64634;DHT22;51043;52.406;9.690;2023-09-08T01:40:42;17.10;99.90
64634;DHT22;51043;52.406;9.690;2023-09-08T01:43:11;17.20;99.90
64634;DHT22;51043;52.406;9.690;2023-09-08T01:45:39;17.10;99.90
64634;DHT22;51043;52.406;9.690;2023-09-08T01:48:07;17.00;99.90
64634;DHT22;51043;52.406;9.690;2023-09-08T01:50:35;17.00;99.90
64634;DHT22;51043;52.406;9.690;2023-09-08T01:53:03;16.90;99.90
64634;DHT22;51043;52.406;9.690;2023-09-08T01:55:31;16.90;99.90
64634;DHT22;51043;52.406;9.690;2023-09-08T01:58:01;16.70;99.90
64634;DHT22;51043;52.406;9.690;2023-09-08T02:00:29;16.60;99.90
64634;DHT22;51043;52.406;9.690;2023-09-08T02:02:57;16.60;99.90
64634;DHT22;51043;52.406;9.690;2023-09-08T02:05:27;16.50;99.90
64634;DHT22;51043;52.406;9.690;2023-09-08T02:07:56;16.40;99.90
64634;DHT22;51043;52.406;9.690;2023-09-08T02:10:24;16.40;99.90
64634;DHT22;51043;52.406;9.690;2023-09-08T02:12:53;16.30;99.90
64634;DHT22;51043;52.406;9.690;2023-09-08T02:15:23;16.30;99.90
64634;DHT22;51043;52.406;9.690;2023-09-08T02:17:53;16.20;99.90
64634;DHT22;51043;52.406;9.690;2023-09-08T02:20:21;16.20;99.90
64634;DHT22;51043;52.406;9.690;2023-09-08T02:22:53;16.20;99.90
64634;DHT22;51043;52.406;9.690;2023-09-08T02:25:23;16.20;99.90
64634;DHT22;51043;52.406;9.690;2023-09-08T02:27:51;16.10;99.90
64634;DHT22;51043;52.406;9.690;2023-09-08T02:30:20;16.00;99.90
64634;DHT22;51043;52.406;9.690;2023-09-08T02:32:51;15.90;99.90
64634;DHT22;51043;52.406;9.690;2023-09-08T02:35:19;15.90;99.90
64634;DHT22;51043;52.406;9.690;2023-09-08T02:37:47;15.90;99.90
64634;DHT22;51043;52.406;9.690;2023-09-08T02:40:17;15.90;99.90
64634;DHT22;51043;52.406;9.690;2023-09-08T02:42:46;15.70;99.90
64634;DHT22;51043;52.406;9.690;2023-09-08T02:45:14;15.70;99.90
64634;DHT22;51043;52.406;9.690;2023-09-08T02:47:42;15.60;99.90
64634;DHT22;51043;52.406;9.690;2023-09-08T02:50:12;15.50;99.90
64634;DHT22;51043;52.406;9.690;2023-09-08T02:52:41;15.40;99.90
64634;DHT22;51043;52.406;9.690;2023-09-08T02:55:10;15.40;99.90
64634;DHT22;51043;52.406;9.690;2023-09-08T02:57:39;15.30;99.90
64634;DHT22;51043;52.406;9.690;2023-09-08T03:00:08;15.20;99.90
64634;DHT22;51043;52.406;9.690;2023-09-08T03:02:37;15.20;99.90
64634;DHT22;51043;52.406;9.690;2023-09-08T03:05:06;15.10;99.90
64634;DHT22;51043;52.406;9.690;2023-09-08T03:07:37;15.10;99.90
64634;DHT22;51043;52.406;9.690;2023-09-08T03:10:07;15.00;99.90
64634;DHT22;51043;52.406;9.690;2023-09-08T03:12:36;15.00;99.90
64634;DHT22;51043;52.406;9.690;2023-09-08T03:15:05;14.90;99.90
64634;DHT22;51043;52.406;9.690;2023-09-08T03:17:33;14.80;99.90
64634;DHT22;51043;52.406;9.690;2023-09-08T03:20:02;14.80;99.90
64634;DHT22;51043;52.406;9.690;2023-09-08T03:22:34;14.70;99.90
64634;DHT22;51043;52.406;9.690;2023-09-08T03:25:04;14.70;99.90
64634;DHT22;51043;52.406;9.690;2023-09-08T03:27:32;14.60;99.90
64634;DHT22;51043;52.406;9.690;2023-09-08T03:30:01;14.60;99.90
64634;DHT22;51043;52.406;9.690;2023-09-08T03:32:29;14.80;99.90
64634;DHT22;51043;52.406;9.690;2023-09-08T03:34:58;14.70;99.90
64634;DHT22;51043;52.406;9.690;2023-09-08T03:37:27;14.80;99.90
64634;DHT22;51043;52.406;9.690;2023-09-08T03:39:56;14.80;99.90
64634;DHT22;51043;52.406;9.690;2023-09-08T03:42:25;14.80;99.90
64634;DHT22;51043;52.406;9.690;2023-09-08T03:44:54;14.70;99.90
64634;DHT22;51043;52.406;9.690;2023-09-08T03:47:24;14.60;99.90
64634;DHT22;51043;52.406;9.690;2023-09-08T03:49:55;14.60;99.90
64634;DHT22;51043;52.406;9.690;2023-09-08T03:52:24;14.60;99.90
64634;DHT22;51043;52.406;9.690;2023-09-08T03:54:53;14.50;99.90
64634;DHT22;51043;52.406;9.690;2023-09-08T03:57:21;14.50;99.90
64634;DHT22;51043;52.406;9.690;2023-09-08T03:59:50;14.50;99.90
64634;DHT22;51043;52.406;9.690;2023-09-08T04:02:18;14.50;99.90
64634;DHT22;51043;52.406;9.690;2023-09-08T04:04:47;14.50;99.90
64634;DHT22;51043;52.406;9.690;2023-09-08T04:07:15;14.60;99.90
64634;DHT22;51043;52.406;9.690;2023-09-08T04:09:43;14.60;99.90
64634;DHT22;51043;52.406;9.690;2023-09-08T04:12:12;14.60;99.90
64634;DHT22;51043;52.406;9.690;2023-09-08T04:14:40;14.50;99.90
64634;DHT22;51043;52.406;9.690;2023-09-08T04:17:10;14.50;99.90
64634;DHT22;51043;52.406;9.690;2023-09-08T04:19:39;14.50;99.90
64634;DHT22;51043;52.406;9.690;2023-09-08T04:22:08;14.50;99.90
64634;DHT22;51043;52.406;9.690;2023-09-08T04:24:36;14.50;99.90
64634;DHT22;51043;52.406;9.690;2023-09-08T04:27:06;14.40;99.90
64634;DHT22;51043;52.406;9.690;2023-09-08T04:29:35;14.50;99.90
64634;DHT22;51043;52.406;9.690;2023-09-08T04:32:04;14.50;99.90
64634;DHT22;51043;52.406;9.690;2023-09-08T04:34:38;14.50;99.90
64634;DHT22;51043;52.406;9.690;2023-09-08T04:37:07;14.70;99.90
64634;DHT22;51043;52.406;9.690;2023-09-08T04:39:36;14.80;99.90
64634;DHT22;51043;52.406;9.690;2023-09-08T04:42:05;14.90;99.90
64634;DHT22;51043;52.406;9.690;2023-09-08T04:44:33;14.90;99.90
64634;DHT22;51043;52.406;9.690;2023-09-08T04:47:02;14.80;99.90
64634;DHT22;51043;52.406;9.690;2023-09-08T04:49:31;14.90;99.90
64634;DHT22;51043;52.406;9.690;2023-09-08T04:52:00;15.00;99.90
64634;DHT22;51043;52.406;9.690;2023-09-08T04:54:30;15.10;99.90
64634;DHT22;51043;52.406;9.690;2023-09-08T04:56:58;15.00;99.90
64634;DHT22;51043;52.406;9.690;2023-09-08T04:59:33;15.00;99.90
64634;DHT22;51043;52.406;9.690;2023-09-08T05:02:04;14.80;99.90
64634;DHT22;51043;52.406;9.690;2023-09-08T05:04:33;14.70;99.90
64634;DHT22;51043;52.406;9.690;2023-09-08T05:07:03;14.70;99.90
64634;DHT22;51043;52.406;9.690;2023-09-08T05:09:32;14.70;99.90
64634;DHT22;51043;52.406;9.690;2023-09-08T05:12:01;14.70;99.90
64634;DHT22;51043;52.406;9.690;2023-09-08T05:14:30;14.80;99.90
64634;DHT22;51043;52.406;9.690;2023-09-08T05:16:58;14.80;99.90
64634;DHT22;51043;52.406;9.690;2023-09-08T05:19:28;14.80;99.90
64634;DHT22;51043;52.406;9.690;2023-09-08T05:21:57;14.90;99.90
64634;DHT22;51043;52.406;9.690;2023-09-08T05:24:27;15.00;99.90
64634;DHT22;51043;52.406;9.690;2023-09-08T05:26:56;15.10;99.90
64634;DHT22;51043;52.406;9.690;2023-09-08T05:29:26;15.10;99.90
64634;DHT22;51043;52.406;9.690;2023-09-08T05:31:54;15.20;99.90
64634;DHT22;51043;52.406;9.690;2023-09-08T05:34:23;15.30;99.90
64634;DHT22;51043;52.406;9.690;2023-09-08T05:36:52;15.30;99.90
64634;DHT22;51043;52.406;9.690;2023-09-08T05:39:22;15.40;99.90
64634;DHT22;51043;52.406;9.690;2023-09-08T05:41:51;15.40;99.90
64634;DHT22;51043;52.406;9.690;2023-09-08T05:44:20;15.50;99.90
64634;DHT22;51043;52.406;9.690;2023-09-08T05:46:49;15.60;99.90
64634;DHT22;51043;52.406;9.690;2023-09-08T05:49:17;15.70;99.90
64634;DHT22;51043;52.406;9.690;2023-09-08T05:51:45;15.80;99.90
64634;DHT22;51043;52.406;9.690;2023-09-08T05:54:14;15.90;99.90
64634;DHT22;51043;52.406;9.690;2023-09-08T05:56:43;16.00;99.90
64634;DHT22;51043;52.406;9.690;2023-09-08T05:59:13;16.20;99.90
64634;DHT22;51043;52.406;9.690;2023-09-08T06:01:41;16.40;99.90
64634;DHT22;51043;52.406;9.690;2023-09-08T06:04:12;16.60;99.90
64634;DHT22;51043;52.406;9.690;2023-09-08T06:06:40;16.80;99.90
64634;DHT22;51043;52.406;9.690;2023-09-08T06:09:08;17.10;99.90
64634;DHT22;51043;52.406;9.690;2023-09-08T06:11:39;17.30;99.90
64634;DHT22;51043;52.406;9.690;2023-09-08T06:14:07;17.40;99.90
64634;DHT22;51043;52.406;9.690;2023-09-08T06:16:40;17.60;99.90
64634;DHT22;51043;52.406;9.690;2023-09-08T06:19:09;17.80;99.90
64634;DHT22;51043;52.406;9.690;2023-09-08T06:21:37;18.00;99.90
64634;DHT22;51043;52.406;9.690;2023-09-08T06:24:06;18.30;99.90
64634;DHT22;51043;52.406;9.690;2023-09-08T06:26:37;18.50;99.90
64634;DHT22;51043;52.406;9.690;2023-09-08T06:29:07;18.80;99.90
64634;DHT22;51043;52.406;9.690;2023-09-08T06:31:35;19.00;99.90
64634;DHT22;51043;52.406;9.690;2023-09-08T06:34:05;19.30;99.90
64634;DHT22;51043;52.406;9.690;2023-09-08T06:36:33;19.50;99.90
64634;DHT22;51043;52.406;9.690;2023-09-08T06:39:02;19.80;99.90
64634;DHT22;51043;52.406;9.690;2023-09-08T06:41:32;20.10;99.90
64634;DHT22;51043;52.406;9.690;2023-09-08T06:44:03;20.30;99.90
64634;DHT22;51043;52.406;9.690;2023-09-08T06:46:33;20.50;99.90
64634;DHT22;51043;52.406;9.690;2023-09-08T06:49:01;20.70;99.90
64634;DHT22;51043;52.406;9.690;2023-09-08T06:51:32;20.90;99.90
64634;DHT22;51043;52.406;9.690;2023-09-08T06:54:00;21.00;99.90
64634;DHT22;51043;52.406;9.690;2023-09-08T06:56:35;21.30;99.90
64634;DHT22;51043;52.406;9.690;2023-09-08T06:59:06;21.40;99.90
64634;DHT22;51043;52.406;9.690;2023-09-08T07:01:35;21.50;99.90
64634;DHT22;51043;52.406;9.690;2023-09-08T07:04:04;21.70;99.90
64634;DHT22;51043;52.406;9.690;2023-09-08T07:06:36;21.90;99.90
64634;DHT22;51043;52.406;9.690;2023-09-08T07:09:08;22.50;99.90
64634;DHT22;51043;52.406;9.690;2023-09-08T07:11:36;23.40;99.90
64634;DHT22;51043;52.406;9.690;2023-09-08T07:14:05;24.30;99.90
64634;DHT22;51043;52.406;9.690;2023-09-08T07:16:33;25.40;99.90
64634;DHT22;51043;52.406;9.690;2023-09-08T07:19:02;26.20;99.90
64634;DHT22;51043;52.406;9.690;2023-09-08T07:21:32;26.90;99.90
64634;DHT22;51043;52.406;9.690;2023-09-08T07:24:03;27.10;99.90
64634;DHT22;51043;52.406;9.690;2023-09-08T07:26:33;27.90;99.90
64634;DHT22;51043;52.406;9.690;2023-09-08T07:29:02;28.60;99.90
64634;DHT22;51043;52.406;9.690;2023-09-08T07:31:32;29.10;99.20
64634;DHT22;51043;52.406;9.690;2023-09-08T07:34:02;29.70;97.90
64634;DHT22;51043;52.406;9.690;2023-09-08T07:36:31;30.20;95.70
64634;DHT22;51043;52.406;9.690;2023-09-08T07:38:59;31.00;93.90
64634;DHT22;51043;52.406;9.690;2023-09-08T07:41:28;31.30;92.10
64634;DHT22;51043;52.406;9.690;2023-09-08T07:43:56;31.70;91.10
64634;DHT22;51043;52.406;9.690;2023-09-08T07:46:25;31.80;89.70
64634;DHT22;51043;52.406;9.690;2023-09-08T07:48:54;31.90;87.90
64634;DHT22;51043;52.406;9.690;2023-09-08T07:51:22;32.30;86.10
64634;DHT22;51043;52.406;9.690;2023-09-08T07:53:50;32.50;85.40
64634;DHT22;51043;52.406;9.690;2023-09-08T07:56:18;33.40;82.10
64634;DHT22;51043;52.406;9.690;2023-09-08T07:58:47;33.70;78.70
64634;DHT22;51043;52.406;9.690;2023-09-08T08:01:16;34.00;79.60
64634;DHT22;51043;52.406;9.690;2023-09-08T08:03:44;34.10;77.60
64634;DHT22;51043;52.406;9.690;2023-09-08T08:06:12;34.50;77.70
64634;DHT22;51043;52.406;9.690;2023-09-08T08:08:40;35.10;73.40
64634;DHT22;51043;52.406;9.690;2023-09-08T08:11:13;35.50;71.20
64634;DHT22;51043;52.406;9.690;2023-09-08T08:13:42;35.50;70.60
64634;DHT22;51043;52.406;9.690;2023-09-08T08:16:11;36.10;67.90
64634;DHT22;51043;52.406;9.690;2023-09-08T08:18:39;36.40;66.50
64634;DHT22;51043;52.406;9.690;2023-09-08T08:21:08;36.60;66.40
64634;DHT22;51043;52.406;9.690;2023-09-08T08:23:36;36.80;63.80
64634;DHT22;51043;52.406;9.690;2023-09-08T08:26:05;36.40;64.40
64634;DHT22;51043;52.406;9.690;2023-09-08T08:28:34;36.60;63.80
64634;DHT22;51043;52.406;9.690;2023-09-08T08:31:02;37.20;62.00
64634;DHT22;51043;52.406;9.690;2023-09-08T08:33:33;37.50;62.20
64634;DHT22;51043;52.406;9.690;2023-09-08T08:36:01;37.90;59.50
64634;DHT22;51043;52.406;9.690;2023-09-08T08:38:30;38.00;61.10
64634;DHT22;51043;52.406;9.690;2023-09-08T08:41:03;38.50;60.10
64634;DHT22;51043;52.406;9.690;2023-09-08T08:43:32;38.40;57.70
64634;DHT22;51043;52.406;9.690;2023-09-08T08:46:01;38.30;56.50
64634;DHT22;51043;52.406;9.690;2023-09-08T08:48:33;38.00;56.30
64634;DHT22;51043;52.406;9.690;2023-09-08T08:51:02;37.80;56.90
64634;DHT22;51043;52.406;9.690;2023-09-08T08:53:31;37.70;56.90
64634;DHT22;51043;52.406;9.690;2023-09-08T08:56:00;37.90;57.50
64634;DHT22;51043;52.406;9.690;2023-09-08T08:58:30;38.10;56.30
64634;DHT22;51043;52.406;9.690;2023-09-08T09:00:59;38.40;55.40
64634;DHT22;51043;52.406;9.690;2023-09-08T09:03:28;38.50;55.10
64634;DHT22;51043;52.406;9.690;2023-09-08T09:05:59;38.50;55.00
64634;DHT22;51043;52.406;9.690;2023-09-08T09:08:28;38.20;54.60
64634;DHT22;51043;52.406;9.690;2023-09-08T09:10:56;38.10;54.00
64634;DHT22;51043;52.406;9.690;2023-09-08T09:13:25;38.20;55.10
64634;DHT22;51043;52.406;9.690;2023-09-08T09:15:58;38.00;54.00
64634;DHT22;51043;52.406;9.690;2023-09-08T09:18:28;38.10;53.50
64634;DHT22;51043;52.406;9.690;2023-09-08T09:21:00;38.20;56.20
64634;DHT22;51043;52.406;9.690;2023-09-08T09:23:31;39.20;54.40
64634;DHT22;51043;52.406;9.690;2023-09-08T09:26:02;39.10;52.40
64634;DHT22;51043;52.406;9.690;2023-09-08T09:28:30;39.30;53.10
64634;DHT22;51043;52.406;9.690;2023-09-08T09:30:59;39.60;51.80
64634;DHT22;51043;52.406;9.690;2023-09-08T09:33:28;39.70;51.70
64634;DHT22;51043;52.406;9.690;2023-09-08T09:35:57;39.60;52.70
64634;DHT22;51043;52.406;9.690;2023-09-08T09:38:27;39.30;51.50
64634;DHT22;51043;52.406;9.690;2023-09-08T09:40:56;38.60;52.30
64634;DHT22;51043;52.406;9.690;2023-09-08T09:43:27;38.00;53.40
64634;DHT22;51043;52.406;9.690;2023-09-08T09:45:56;37.00;54.60
64634;DHT22;51043;52.406;9.690;2023-09-08T09:48:24;36.10;57.30
64634;DHT22;51043;52.406;9.690;2023-09-08T09:50:52;35.80;56.90
64634;DHT22;51043;52.406;9.690;2023-09-08T09:53:22;35.20;58.50
64634;DHT22;51043;52.406;9.690;2023-09-08T09:55:53;34.70;59.10
64634;DHT22;51043;52.406;9.690;2023-09-08T09:58:22;34.20;59.30
64634;DHT22;51043;52.406;9.690;2023-09-08T10:00:52;33.80;62.70
64634;DHT22;51043;52.406;9.690;2023-09-08T10:03:22;33.70;61.40
64634;DHT22;51043;52.406;9.690;2023-09-08T10:05:51;33.70;62.50
64634;DHT22;51043;52.406;9.690;2023-09-08T10:08:20;33.80;61.00
64634;DHT22;51043;52.406;9.690;2023-09-08T10:10:48;34.40;60.20
64634;DHT22;51043;52.406;9.690;2023-09-08T10:13:28;35.50;58.80
64634;DHT22;51043;52.406;9.690;2023-09-08T10:16:01;36.40;56.00
64634;DHT22;51043;52.406;9.690;2023-09-08T10:18:31;37.20;55.00
64634;DHT22;51043;52.406;9.690;2023-09-08T10:21:04;37.60;53.70
64634;DHT22;51043;52.406;9.690;2023-09-08T10:23:36;37.90;54.00
64634;DHT22;51043;52.406;9.690;2023-09-08T10:26:07;37.80;53.40
64634;DHT22;51043;52.406;9.690;2023-09-08T10:28:38;38.10;52.10
64634;DHT22;51043;52.406;9.690;2023-09-08T10:31:08;38.40;52.60
64634;DHT22;51043;52.406;9.690;2023-09-08T10:33:39;38.50;51.70
64634;DHT22;51043;52.406;9.690;2023-09-08T10:36:08;38.70;52.00
64634;DHT22;51043;52.406;9.690;2023-09-08T10:38:38;39.20;54.10
64634;DHT22;51043;52.406;9.690;2023-09-08T10:41:27;39.50;50.30
64634;DHT22;51043;52.406;9.690;2023-09-08T10:44:03;40.20;51.50
64634;DHT22;51043;52.406;9.690;2023-09-08T10:46:37;40.60;49.80
64634;DHT22;51043;52.406;9.690;2023-09-08T10:49:06;41.20;48.50
64634;DHT22;51043;52.406;9.690;2023-09-08T10:51:35;41.40;47.60
64634;DHT22;51043;52.406;9.690;2023-09-08T10:54:05;41.50;49.30
64634;DHT22;51043;52.406;9.690;2023-09-08T10:56:49;41.80;48.50
64634;DHT22;51043;52.406;9.690;2023-09-08T10:59:28;42.30;47.20
64634;DHT22;51043;52.406;9.690;2023-09-08T11:01:56;42.90;45.70
64634;DHT22;51043;52.406;9.690;2023-09-08T11:04:25;43.20;45.30
64634;DHT22;51043;52.406;9.690;2023-09-08T11:06:56;43.60;44.50
64634;DHT22;51043;52.406;9.690;2023-09-08T11:09:24;43.40;46.10
64634;DHT22;51043;52.406;9.690;2023-09-08T11:11:54;43.80;44.40
64634;DHT22;51043;52.406;9.690;2023-09-08T11:14:26;44.00;44.40
64634;DHT22;51043;52.406;9.690;2023-09-08T11:16:57;44.40;42.30
64634;DHT22;51043;52.406;9.690;2023-09-08T11:19:43;43.50;42.80
64634;DHT22;51043;52.406;9.690;2023-09-08T11:22:12;43.30;43.60
64634;DHT22;51043;52.406;9.690;2023-09-08T11:24:41;43.40;44.30
64634;DHT22;51043;52.406;9.690;2023-09-08T11:27:10;43.60;41.90
64634;DHT22;51043;52.406;9.690;2023-09-08T11:29:40;43.50;42.90
64634;DHT22;51043;52.406;9.690;2023-09-08T11:32:09;43.70;41.20
64634;DHT22;51043;52.406;9.690;2023-09-08T11:34:37;43.70;43.20
64634;DHT22;51043;52.406;9.690;2023-09-08T11:37:11;44.00;43.00
64634;DHT22;51043;52.406;9.690;2023-09-08T11:39:40;44.60;40.70
64634;DHT22;51043;52.406;9.690;2023-09-08T11:42:13;44.20;39.70
64634;DHT22;51043;52.406;9.690;2023-09-08T11:44:43;44.20;41.20
64634;DHT22;51043;52.406;9.690;2023-09-08T11:47:11;43.80;40.00
64634;DHT22;51043;52.406;9.690;2023-09-08T11:49:44;43.90;39.00
64634;DHT22;51043;52.406;9.690;2023-09-08T11:52:13;43.00;39.90
64634;DHT22;51043;52.406;9.690;2023-09-08T11:54:41;43.00;39.90
64634;DHT22;51043;52.406;9.690;2023-09-08T11:57:18;43.10;40.10
64634;DHT22;51043;52.406;9.690;2023-09-08T11:59:50;42.80;39.30
64634;DHT22;51043;52.406;9.690;2023-09-08T12:02:19;42.90;38.50
64634;DHT22;51043;52.406;9.690;2023-09-08T12:04:47;42.80;40.40
64634;DHT22;51043;52.406;9.690;2023-09-08T12:07:17;42.90;38.10
64634;DHT22;51043;52.406;9.690;2023-09-08T12:09:47;42.60;38.60
64634;DHT22;51043;52.406;9.690;2023-09-08T12:12:16;42.80;38.30
64634;DHT22;51043;52.406;9.690;2023-09-08T12:14:44;43.00;37.40
64634;DHT22;51043;52.406;9.690;2023-09-08T12:17:15;42.20;35.30
64634;DHT22;51043;52.406;9.690;2023-09-08T12:19:45;40.80;38.60
64634;DHT22;51043;52.406;9.690;2023-09-08T12:22:13;39.90;39.20
64634;DHT22;51043;52.406;9.690;2023-09-08T12:24:49;40.20;38.10
64634;DHT22;51043;52.406;9.690;2023-09-08T12:27:19;40.90;36.80
64634;DHT22;51043;52.406;9.690;2023-09-08T12:29:58;40.70;37.80
64634;DHT22;51043;52.406;9.690;2023-09-08T12:32:31;41.10;36.10
64634;DHT22;51043;52.406;9.690;2023-09-08T12:35:03;41.90;37.90
64634;DHT22;51043;52.406;9.690;2023-09-08T12:37:33;42.00;36.20
64634;DHT22;51043;52.406;9.690;2023-09-08T12:40:02;41.40;35.60
64634;DHT22;51043;52.406;9.690;2023-09-08T12:42:30;40.60;35.60
64634;DHT22;51043;52.406;9.690;2023-09-08T12:45:02;39.80;38.50
64634;DHT22;51043;52.406;9.690;2023-09-08T12:47:31;38.90;39.70
64634;DHT22;51043;52.406;9.690;2023-09-08T12:50:00;37.90;39.90
64634;DHT22;51043;52.406;9.690;2023-09-08T12:52:28;36.70;41.50
64634;DHT22;51043;52.406;9.690;2023-09-08T12:54:58;35.50;44.00
64634;DHT22;51043;52.406;9.690;2023-09-08T12:57:26;35.00;44.60
64634;DHT22;51043;52.406;9.690;2023-09-08T12:59:59;34.60;44.40
64634;DHT22;51043;52.406;9.690;2023-09-08T13:02:28;34.10;46.30
64634;DHT22;51043;52.406;9.690;2023-09-08T13:04:57;33.80;44.20
64634;DHT22;51043;52.406;9.690;2023-09-08T13:07:26;33.40;44.90
64634;DHT22;51043;52.406;9.690;2023-09-08T13:09:54;33.30;45.00
64634;DHT22;51043;52.406;9.690;2023-09-08T13:12:22;33.00;44.30
64634;DHT22;51043;52.406;9.690;2023-09-08T13:14:50;32.70;46.50
64634;DHT22;51043;52.406;9.690;2023-09-08T13:17:18;32.40;46.90
64634;DHT22;51043;52.406;9.690;2023-09-08T13:19:47;32.30;45.70
64634;DHT22;51043;52.406;9.690;2023-09-08T13:22:18;32.10;45.10
64634;DHT22;51043;52.406;9.690;2023-09-08T13:24:47;32.00;45.60
64634;DHT22;51043;52.406;9.690;2023-09-08T13:27:16;31.80;46.30
64634;DHT22;51043;52.406;9.690;2023-09-08T13:29:46;31.70;45.50
64634;DHT22;51043;52.406;9.690;2023-09-08T13:32:16;31.50;44.00
64634;DHT22;51043;52.406;9.690;2023-09-08T13:34:44;31.30;44.90
64634;DHT22;51043;52.406;9.690;2023-09-08T13:37:17;31.20;45.20
64634;DHT22;51043;52.406;9.690;2023-09-08T13:39:46;31.10;43.80
64634;DHT22;51043;52.406;9.690;2023-09-08T13:42:15;31.00;45.20
64634;DHT22;51043;52.406;9.690;2023-09-08T13:44:44;30.90;44.90
64634;DHT22;51043;52.406;9.690;2023-09-08T13:47:15;30.80;44.70
64634;DHT22;51043;52.406;9.690;2023-09-08T13:49:48;30.80;45.70
64634;DHT22;51043;52.406;9.690;2023-09-08T13:52:19;30.70;43.20
64634;DHT22;51043;52.406;9.690;2023-09-08T13:54:49;30.60;43.90
64634;DHT22;51043;52.406;9.690;2023-09-08T13:57:25;30.50;44.00
64634;DHT22;51043;52.406;9.690;2023-09-08T13:59:55;30.50;44.20
64634;DHT22;51043;52.406;9.690;2023-09-08T14:02:24;30.40;46.00
64634;DHT22;51043;52.406;9.690;2023-09-08T14:05:07;30.40;41.50
64634;DHT22;51043;52.406;9.690;2023-09-08T14:07:38;30.30;42.10
64634;DHT22;51043;52.406;9.690;2023-09-08T14:10:10;30.30;42.10
64634;DHT22;51043;52.406;9.690;2023-09-08T14:12:41;30.30;42.30
64634;DHT22;51043;52.406;9.690;2023-09-08T14:15:10;30.20;43.20
64634;DHT22;51043;52.406;9.690;2023-09-08T14:17:42;30.10;43.40
64634;DHT22;51043;52.406;9.690;2023-09-08T14:20:11;30.10;43.60
64634;DHT22;51043;52.406;9.690;2023-09-08T14:22:41;30.10;43.70
64634;DHT22;51043;52.406;9.690;2023-09-08T14:25:09;30.00;43.50
64634;DHT22;51043;52.406;9.690;2023-09-08T14:27:37;30.00;43.20
64634;DHT22;51043;52.406;9.690;2023-09-08T14:30:06;29.90;43.60
64634;DHT22;51043;52.406;9.690;2023-09-08T14:32:34;29.90;45.60
64634;DHT22;51043;52.406;9.690;2023-09-08T14:35:03;29.90;43.70
64634;DHT22;51043;52.406;9.690;2023-09-08T14:37:31;29.80;44.20
64634;DHT22;51043;52.406;9.690;2023-09-08T14:40:01;29.70;46.90
64634;DHT22;51043;52.406;9.690;2023-09-08T14:42:30;29.80;45.00
64634;DHT22;51043;52.406;9.690;2023-09-08T14:44:58;29.70;45.20
64634;DHT22;51043;52.406;9.690;2023-09-08T14:47:31;29.70;46.70
64634;DHT22;51043;52.406;9.690;2023-09-08T14:49:59;29.70;45.40
64634;DHT22;51043;52.406;9.690;2023-09-08T14:52:28;29.70;46.10
64634;DHT22;51043;52.406;9.690;2023-09-08T14:54:56;29.60;44.70
64634;DHT22;51043;52.406;9.690;2023-09-08T14:57:26;29.60;46.40
64634;DHT22;51043;52.406;9.690;2023-09-08T14:59:54;29.50;46.50
64634;DHT22;51043;52.406;9.690;2023-09-08T15:02:23;29.50;44.30
64634;DHT22;51043;52.406;9.690;2023-09-08T15:04:51;29.50;44.40
64634;DHT22;51043;52.406;9.690;2023-09-08T15:07:19;29.50;45.60
64634;DHT22;51043;52.406;9.690;2023-09-08T15:09:47;29.40;45.80
64634;DHT22;51043;52.406;9.690;2023-09-08T15:12:16;29.40;45.60
64634;DHT22;51043;52.406;9.690;2023-09-08T15:14:46;29.40;45.50
64634;DHT22;51043;52.406;9.690;2023-09-08T15:17:14;29.50;45.80
64634;DHT22;51043;52.406;9.690;2023-09-08T15:19:43;29.50;45.70
64634;DHT22;51043;52.406;9.690;2023-09-08T15:22:15;29.40;45.30
64634;DHT22;51043;52.406;9.690;2023-09-08T15:24:43;29.40;47.60
64634;DHT22;51043;52.406;9.690;2023-09-08T15:27:13;29.30;48.00
64634;DHT22;51043;52.406;9.690;2023-09-08T15:29:45;29.40;48.00
64634;DHT22;51043;52.406;9.690;2023-09-08T15:32:14;29.40;49.40
64634;DHT22;51043;52.406;9.690;2023-09-08T15:34:42;29.40;50.60
64634;DHT22;51043;52.406;9.690;2023-09-08T15:37:13;29.40;49.40
64634;DHT22;51043;52.406;9.690;2023-09-08T15:39:42;29.40;49.70
64634;DHT22;51043;52.406;9.690;2023-09-08T15:42:12;29.20;51.20
64634;DHT22;51043;52.406;9.690;2023-09-08T15:44:41;29.30;52.30